Detalii statie AGRALMIXT [00001CED]

Toti senzorii

Date Temperatura solului [C]Precipitatii [mm]Voltaj baterie [mV]Leaf Wetness [Min]HC Air temperature [C]HC Relative humidity [%]Punctul de roua [C]
medieminmaxsumaultimatimpmedieminmaxmediemediemin
2019-10-21 22:00:00 0 6688 10.71 9.56 11.6 100 10.6 9.5
2019-10-21 23:00:00 0 6678 10.29 9.66 11.23 100 10.2 9.6
2019-10-22 00:00:00 0 6678 9.77 9.32 10.21 100 9.7 9.3
2019-10-22 01:00:00 0 6668 9.76 8.01 10.85 100 9.7 8
2019-10-22 02:00:00 0 6660 7.73 7.56 7.95 100 7.6 7.5
2019-10-22 03:00:00 0.2 6660 8.13 7.91 8.49 100 8 7.9
2019-10-22 04:00:00 0 6650 8.68 8.57 8.8 100 8.6 8.5
2019-10-22 05:00:00 0 6650 8.94 8.82 9.1 100 8.9 8.8
2019-10-22 06:00:00 0 6640 9.29 9.13 9.41 100 9.2 9.1
2019-10-22 07:00:00 0.2 6630 9.71 9.44 10.01 100 9.6 9.4
2019-10-22 08:00:00 0 6668 10.31 10.04 10.59 100 10.2 10
2019-10-22 09:00:00 0 6728 10.92 10.59 11.31 100 10.8 10.5
2019-10-22 10:00:00 0 6786 11.7 11.4 11.98 100 11.6 11.4
2019-10-22 11:00:00 0 6844 11.99 11.83 12.3 100 11.9 11.8
2019-10-22 12:00:00 0 6844 12.02 11.77 12.17 100 11.9 11.7
2019-10-22 13:00:00 0 6854 12.28 11.94 12.58 100 12.2 11.9
2019-10-22 14:00:00 0 6826 12.75 12.48 12.93 100 12.7 12.4
2019-10-22 15:00:00 0 6776 12.79 12.71 12.87 100 12.7 12.7
2019-10-22 16:00:00 0 6718 12.86 12.78 12.91 100 12.8 12.7
2019-10-22 17:00:00 0 6650 12.79 12.75 12.95 100 12.7 12.7
2019-10-22 18:00:00 0 6640 12.71 12.64 12.76 100 12.6 12.6
2019-10-22 19:00:00 0 6640 12.59 12.57 12.65 100 12.5 12.5
2019-10-22 20:00:00 0 6640 12.6 12.58 12.64 100 12.5 12.5
2019-10-22 21:00:00 0 6640 12.68 12.64 12.73 100 12.6 12.6
2019-10-22 22:00:00 0 6640 12.71 12.7 12.74 100 12.7 12.7
2019-10-22 23:00:00 0 6630 12.72 12.7 12.75 100 12.7 12.7
2019-10-23 00:00:00 0 6630 12.7 12.69 12.72 100 12.6 12.6
2019-10-23 01:00:00 0 6630 12.71 12.69 12.74 100 12.6 12.6
2019-10-23 02:00:00 0 6640 12.69 12.67 12.72 100 12.6 12.6
2019-10-23 03:00:00 0 6630 12.73 12.66 12.85 100 12.6 12.6
2019-10-23 04:00:00 0 6640 12.68 12.56 12.82 100 12.6 12.5
2019-10-23 05:00:00 0 6640 12.38 12.27 12.51 100 12.3 12.2
2019-10-23 06:00:00 0 6640 12.09 11.95 12.25 100 12 11.9
2019-10-23 07:00:00 0.2 6630 11.87 11.82 11.95 100 11.8 11.8
2019-10-23 08:00:00 0 6650 11.81 11.74 11.88 100 11.7 11.7
2019-10-23 09:00:00 0 6668 11.9 11.71 12.13 100 11.8 11.7
2019-10-23 10:00:00 0 6718 12.03 11.93 12.3 100 11.9 11.9
2019-10-23 11:00:00 0 6738 12.12 11.98 12.24 100 12 11.9
2019-10-23 12:00:00 0 6766 12.3 12.18 12.46 100 12.2 12.1
2019-10-23 13:00:00 0 6766 12.39 12.24 12.59 100 12.3 12.2
2019-10-23 14:00:00 0 6766 12.44 12.23 12.58 100 12.4 12.2
2019-10-23 15:00:00 0 6748 12.46 12.36 12.58 100 12.4 12.3
2019-10-23 16:00:00 0 6688 12.4 12.3 12.51 100 12.3 12.3
2019-10-23 17:00:00 0 6650 12.38 12.29 12.51 100 12.3 12.2
2019-10-23 18:00:00 0 6640 12.13 11.98 12.3 100 12 11.9
2019-10-23 19:00:00 0 6640 11.91 11.82 12 100 11.8 11.8
2019-10-23 20:00:00 0 6630 11.7 11.61 11.86 100 11.6 11.6
2019-10-23 21:00:00 0 6640 11.64 11.57 11.7 100 11.5 11.5